createdAt,value
2018-11-05T00:02:21.794Z,7.53
2018-11-05T00:04:49.999Z,8.00
2018-11-05T00:07:18.202Z,8.28
2018-11-05T00:09:46.381Z,8.55
2018-11-05T00:12:14.565Z,7.67
2018-11-05T00:14:42.793Z,7.65
2018-11-05T00:17:11.067Z,7.40
2018-11-05T00:19:39.289Z,9.08
2018-11-05T00:22:08.142Z,8.13
2018-11-05T00:24:36.375Z,9.73
2018-11-05T00:27:04.704Z,8.90
2018-11-05T00:29:34.069Z,7.55
2018-11-05T00:32:02.318Z,7.77
2018-11-05T00:34:30.528Z,8.15
2018-11-05T00:36:58.747Z,7.97
2018-11-05T00:39:27.036Z,6.97
2018-11-05T00:41:55.267Z,8.07
2018-11-05T00:44:23.539Z,7.65
2018-11-05T00:46:52.122Z,8.90
2018-11-05T00:49:20.320Z,7.70
2018-11-05T00:51:48.571Z,8.13
2018-11-05T00:54:16.803Z,7.15
2018-11-05T00:56:45.022Z,8.10
2018-11-05T00:59:13.359Z,7.20
2018-11-05T01:01:42.071Z,8.67
2018-11-05T01:04:10.980Z,8.25
2018-11-05T01:06:39.293Z,8.57
2018-11-05T01:09:07.757Z,8.00
2018-11-05T01:11:36.009Z,8.97
2018-11-05T01:14:04.474Z,9.45
2018-11-05T01:16:32.703Z,7.97
2018-11-05T01:19:00.882Z,9.93
2018-11-05T01:21:29.085Z,7.73
2018-11-05T01:23:57.355Z,8.53
2018-11-05T01:26:25.647Z,9.27
2018-11-05T01:28:53.879Z,8.83
2018-11-05T01:31:22.089Z,8.13
2018-11-05T01:33:50.359Z,9.38
2018-11-05T01:36:18.594Z,7.83
2018-11-05T01:38:46.861Z,9.95
2018-11-05T01:41:15.092Z,7.67
2018-11-05T01:43:43.314Z,9.38
2018-11-05T01:46:11.571Z,7.50
2018-11-05T01:48:40.464Z,8.25
2018-11-05T01:51:08.765Z,8.97
2018-11-05T01:53:36.990Z,9.10
2018-11-05T01:56:05.894Z,10.23
2018-11-05T01:58:34.112Z,7.85
2018-11-05T02:01:02.360Z,7.50
2018-11-05T02:03:30.567Z,8.58
2018-11-05T02:05:58.810Z,7.77
2018-11-05T02:08:27.020Z,8.30
2018-11-05T02:10:55.240Z,8.10
2018-11-05T02:13:23.595Z,8.78
2018-11-05T02:15:51.827Z,8.83
2018-11-05T02:18:20.024Z,8.08
2018-11-05T02:20:48.255Z,9.37
2018-11-05T02:23:16.495Z,7.92
2018-11-05T02:25:44.684Z,7.87
2018-11-05T02:28:12.918Z,7.65
2018-11-05T02:30:41.144Z,9.00
2018-11-05T02:33:12.277Z,6.45
2018-11-05T02:35:40.497Z,7.77
2018-11-05T02:38:10.280Z,10.78
2018-11-05T02:40:38.482Z,8.53
2018-11-05T02:43:06.673Z,9.85
2018-11-05T02:45:34.907Z,7.77
2018-11-05T02:48:03.118Z,7.22
2018-11-05T02:50:31.316Z,6.87
2018-11-05T02:52:59.520Z,7.55
2018-11-05T02:55:27.776Z,7.20
2018-11-05T02:57:56.001Z,7.47
2018-11-05T03:00:24.228Z,7.85
2018-11-05T03:02:52.442Z,6.97
2018-11-05T03:05:20.866Z,7.67
2018-11-05T03:07:49.714Z,8.30
2018-11-05T03:10:19.309Z,9.10
2018-11-05T03:12:48.138Z,7.03
2018-11-05T03:15:17.437Z,8.55
2018-11-05T03:17:45.626Z,8.30
2018-11-05T03:20:14.791Z,8.03
2018-11-05T03:22:43.496Z,7.90
2018-11-05T03:25:11.740Z,7.42
2018-11-05T03:27:40.476Z,7.03
2018-11-05T03:30:11.534Z,10.18
2018-11-05T03:32:39.837Z,8.33
2018-11-05T03:35:08.999Z,7.67
2018-11-05T03:37:37.194Z,7.50
2018-11-05T03:40:05.961Z,8.18
2018-11-05T03:42:34.221Z,8.73
2018-11-05T03:45:02.457Z,9.38
2018-11-05T03:47:30.699Z,8.60
2018-11-05T03:49:58.933Z,6.97
2018-11-05T03:52:27.201Z,9.13
2018-11-05T03:54:55.435Z,7.78
2018-11-05T03:57:23.669Z,7.77
2018-11-05T03:59:51.872Z,8.18
2018-11-05T04:02:20.635Z,7.83
2018-11-05T04:04:48.997Z,8.63
2018-11-05T04:07:17.255Z,8.13
2018-11-05T04:09:45.508Z,8.03
2018-11-05T04:12:13.743Z,8.43
2018-11-05T04:14:41.978Z,7.40
2018-11-05T04:17:10.220Z,9.90
2018-11-05T04:19:38.469Z,8.38
2018-11-05T04:22:08.176Z,7.30
2018-11-05T04:24:36.421Z,8.33
2018-11-05T04:27:05.209Z,8.20
2018-11-05T04:29:33.824Z,7.55
2018-11-05T04:32:02.048Z,10.17
2018-11-05T04:34:30.291Z,9.45
2018-11-05T04:36:58.487Z,9.60
2018-11-05T04:39:26.708Z,8.65
2018-11-05T04:41:55.001Z,8.50
2018-11-05T04:44:23.260Z,7.53
2018-11-05T04:46:51.430Z,8.53
2018-11-05T04:49:19.662Z,8.63
2018-11-05T04:51:47.908Z,6.77
2018-11-05T04:54:16.149Z,8.08
2018-11-05T04:56:44.389Z,6.67
2018-11-05T04:59:12.903Z,7.45
2018-11-05T05:01:41.096Z,8.43
2018-11-05T05:04:10.164Z,8.33
2018-11-05T05:06:38.402Z,6.53
2018-11-05T05:09:09.203Z,8.60
2018-11-05T05:11:37.473Z,9.03
2018-11-05T05:14:06.520Z,6.53
2018-11-05T05:16:34.803Z,8.10
2018-11-05T05:19:03.026Z,8.03
2018-11-05T05:21:31.259Z,7.07
2018-11-05T05:23:59.506Z,8.53
2018-11-05T05:26:27.839Z,8.15
2018-11-05T05:28:56.056Z,7.03
2018-11-05T05:31:24.316Z,8.30
2018-11-05T05:33:52.603Z,8.85
2018-11-05T05:36:20.839Z,6.73
2018-11-05T05:38:49.062Z,8.35
2018-11-05T05:41:17.367Z,10.30
2018-11-05T05:43:45.521Z,7.35
2018-11-05T05:46:14.263Z,8.97
2018-11-05T05:48:43.660Z,8.08
2018-11-05T05:51:11.905Z,8.63
2018-11-05T05:53:40.135Z,8.80
2018-11-05T05:56:08.580Z,9.73
2018-11-05T05:58:36.843Z,9.45
2018-11-05T06:01:05.244Z,9.50
2018-11-05T06:03:33.494Z,9.25
2018-11-05T06:06:01.704Z,8.73
2018-11-05T06:08:29.922Z,10.70
2018-11-05T06:10:58.135Z,7.57
2018-11-05T06:13:26.331Z,8.33
2018-11-05T06:15:54.633Z,8.53
2018-11-05T06:18:23.641Z,8.75
2018-11-05T06:20:51.843Z,7.50
2018-11-05T06:23:20.090Z,8.33
2018-11-05T06:25:48.320Z,7.15
2018-11-05T06:28:16.560Z,8.20
2018-11-05T06:30:44.759Z,8.80
2018-11-05T06:33:13.011Z,7.97
2018-11-05T06:35:41.198Z,9.77
2018-11-05T06:38:09.621Z,8.95
2018-11-05T06:40:37.891Z,9.28
2018-11-05T06:43:06.352Z,8.30
2018-11-05T06:45:34.566Z,7.57
2018-11-05T06:48:02.794Z,9.40
2018-11-05T06:50:31.039Z,7.40
2018-11-05T06:52:59.346Z,8.65
2018-11-05T06:55:27.571Z,9.10
2018-11-05T06:57:55.827Z,7.92
2018-11-05T07:00:25.175Z,7.70
2018-11-05T07:02:53.510Z,7.78
2018-11-05T07:05:21.760Z,7.42
2018-11-05T07:07:50.004Z,10.58
2018-11-05T07:10:18.970Z,10.10
2018-11-05T07:12:47.226Z,7.35
2018-11-05T07:15:16.653Z,11.08
2018-11-05T07:17:45.940Z,8.43
2018-11-05T07:20:16.276Z,7.35
2018-11-05T07:22:45.164Z,9.43
2018-11-05T07:25:14.349Z,9.38
2018-11-05T07:27:42.921Z,8.93
2018-11-05T07:30:13.769Z,9.90
2018-11-05T07:32:42.061Z,8.13
2018-11-05T07:35:11.965Z,7.62
2018-11-05T07:37:40.313Z,9.25
2018-11-05T07:40:10.146Z,9.75
2018-11-05T07:42:38.724Z,8.63
2018-11-05T07:45:10.405Z,8.28
2018-11-05T07:47:38.652Z,7.58
2018-11-05T07:50:09.166Z,8.58
2018-11-05T07:52:37.376Z,10.68
2018-11-05T07:55:06.739Z,8.60
2018-11-05T07:57:34.945Z,8.98
2018-11-05T08:00:04.879Z,9.50
2018-11-05T08:02:33.169Z,11.80
2018-11-05T08:05:01.341Z,9.00
2018-11-05T08:07:29.586Z,10.53
2018-11-05T08:09:57.800Z,9.55
2018-11-05T08:12:26.374Z,8.70
2018-11-05T08:14:54.625Z,10.55
2018-11-05T08:17:22.845Z,9.33
2018-11-05T08:19:51.087Z,8.60
2018-11-05T08:22:19.312Z,11.38
2018-11-05T08:24:47.507Z,10.90
2018-11-05T08:27:15.711Z,11.30
2018-11-05T08:29:44.254Z,9.80
2018-11-05T08:32:15.413Z,10.48
2018-11-05T08:34:43.662Z,11.07
2018-11-05T08:37:11.956Z,11.13
2018-11-05T08:39:40.204Z,11.83
2018-11-05T08:42:08.478Z,11.23
2018-11-05T08:44:36.735Z,10.00
2018-11-05T08:47:05.014Z,12.88
2018-11-05T08:49:33.265Z,9.95
2018-11-05T08:52:01.521Z,9.70
2018-11-05T08:54:29.714Z,10.50
2018-11-05T08:56:57.907Z,10.87
2018-11-05T08:59:26.719Z,11.57
2018-11-05T09:01:54.941Z,11.80
2018-11-05T09:04:23.159Z,10.70
2018-11-05T09:06:51.373Z,11.60
2018-11-05T09:09:19.619Z,15.65
2018-11-05T09:11:47.942Z,14.40
2018-11-05T09:14:16.496Z,13.30
2018-11-05T09:16:44.720Z,12.03
2018-11-05T09:19:12.941Z,11.97
2018-11-05T09:21:41.165Z,13.30
2018-11-05T09:24:09.374Z,11.35
2018-11-05T09:26:37.646Z,17.40
2018-11-05T09:29:06.392Z,12.05
2018-11-05T09:31:34.599Z,13.33
2018-11-05T09:34:02.909Z,13.68
2018-11-05T09:36:31.130Z,13.77
2018-11-05T09:38:59.356Z,11.90
2018-11-05T09:41:27.562Z,13.70
2018-11-05T09:43:55.804Z,11.88
2018-11-05T09:46:24.063Z,13.63
2018-11-05T09:48:52.816Z,11.50
2018-11-05T09:51:21.041Z,13.55
2018-11-05T09:53:49.292Z,13.10
2018-11-05T09:56:18.764Z,15.40
2018-11-05T09:58:46.987Z,13.85
2018-11-05T10:01:15.220Z,15.60
2018-11-05T10:03:49.033Z,12.27
2018-11-05T10:06:18.244Z,13.33
2018-11-05T10:08:46.444Z,13.20
2018-11-05T10:11:14.717Z,12.80
2018-11-05T10:13:49.447Z,11.27
2018-11-05T10:16:18.611Z,12.80
2018-11-05T10:18:46.780Z,12.80
2018-11-05T10:21:14.979Z,12.23
2018-11-05T10:23:43.170Z,11.03
2018-11-05T10:26:11.414Z,12.40
2018-11-05T10:28:39.606Z,12.95
2018-11-05T10:31:07.840Z,10.93
2018-11-05T10:33:36.185Z,13.97
2018-11-05T10:36:04.567Z,11.03
2018-11-05T10:38:32.820Z,10.97
2018-11-05T10:41:01.062Z,12.10
2018-11-05T10:43:29.301Z,15.83
2018-11-05T10:45:57.574Z,14.90
2018-11-05T10:48:26.664Z,12.57
2018-11-05T10:50:54.893Z,14.33
2018-11-05T10:53:23.158Z,13.07
2018-11-05T10:55:51.532Z,10.10
2018-11-05T10:58:20.225Z,14.07
2018-11-05T11:00:53.865Z,9.67
2018-11-05T11:03:22.147Z,11.67
2018-11-05T11:05:50.383Z,11.07
2018-11-05T11:08:19.772Z,11.57
2018-11-05T11:10:48.024Z,12.03
2018-11-05T11:13:16.255Z,15.83
2018-11-05T11:15:44.483Z,12.30
2018-11-05T11:18:12.856Z,12.93
2018-11-05T11:20:41.161Z,15.87
2018-11-05T11:23:09.371Z,11.00
2018-11-05T11:25:37.562Z,11.93
2018-11-05T11:28:06.219Z,11.90
2018-11-05T11:30:34.313Z,13.10
2018-11-05T11:33:02.521Z,13.03
2018-11-05T11:35:30.775Z,14.33
2018-11-05T11:37:58.976Z,12.73
2018-11-05T11:40:27.261Z,12.10
2018-11-05T11:42:55.545Z,13.03
2018-11-05T11:45:24.438Z,11.97
2018-11-05T11:47:52.709Z,14.40
2018-11-05T11:50:21.325Z,13.23
2018-11-05T11:52:50.012Z,17.00
2018-11-05T11:55:20.346Z,12.33
2018-11-05T11:57:48.560Z,12.83
2018-11-05T12:00:20.594Z,12.80
2018-11-05T12:02:49.318Z,12.90
2018-11-05T12:05:17.702Z,13.27
2018-11-05T12:07:45.816Z,13.03
2018-11-05T12:10:17.827Z,12.20
2018-11-05T12:12:52.700Z,12.63
2018-11-05T12:15:21.781Z,12.53
2018-11-05T12:17:51.059Z,12.20
2018-11-05T12:20:20.843Z,12.20
2018-11-05T12:22:49.560Z,15.93
2018-11-05T12:25:17.821Z,13.23
2018-11-05T12:27:46.024Z,13.60
2018-11-05T12:30:19.637Z,12.10
2018-11-05T12:32:48.727Z,12.23
2018-11-05T12:35:16.999Z,10.70
2018-11-05T12:37:46.307Z,17.47
2018-11-05T12:40:16.281Z,10.83
2018-11-05T12:42:45.708Z,14.60
2018-11-05T12:45:13.944Z,13.73
2018-11-05T12:47:42.164Z,11.93
2018-11-05T12:50:12.853Z,15.80
2018-11-05T12:52:41.493Z,13.80
2018-11-05T12:55:10.266Z,10.93
2018-11-05T12:57:38.544Z,12.40
2018-11-05T13:00:10.122Z,12.25
2018-11-05T13:02:38.334Z,12.87
2018-11-05T13:05:07.996Z,11.00
2018-11-05T13:07:36.204Z,13.13
2018-11-05T13:10:05.755Z,14.93
2018-11-05T13:12:34.841Z,16.40
2018-11-05T13:15:03.202Z,12.17
2018-11-05T13:17:31.904Z,12.47
2018-11-05T13:20:00.145Z,12.83
2018-11-05T13:22:28.763Z,14.37
2018-11-05T13:24:56.894Z,12.73
2018-11-05T13:27:25.179Z,12.10
2018-11-05T13:29:53.443Z,12.50
2018-11-05T13:32:21.960Z,13.50
2018-11-05T13:34:50.231Z,11.77
2018-11-05T13:37:18.855Z,13.83
2018-11-05T13:39:46.767Z,10.23
2018-11-05T13:42:14.964Z,15.67
2018-11-05T13:44:43.406Z,10.03
2018-11-05T13:47:12.368Z,17.30
2018-11-05T13:49:40.053Z,13.30
2018-11-05T13:52:08.250Z,12.97
2018-11-05T13:54:36.478Z,10.57
2018-11-05T13:57:04.661Z,13.30
2018-11-05T13:59:32.891Z,12.37
2018-11-05T14:02:01.125Z,12.83
2018-11-05T14:04:29.389Z,10.67
2018-11-05T14:06:57.570Z,10.73
2018-11-05T14:09:25.861Z,16.13
2018-11-05T14:11:54.854Z,15.07
2018-11-05T14:14:23.537Z,10.80
2018-11-05T14:16:51.828Z,14.43
2018-11-05T14:19:20.090Z,13.93
2018-11-05T14:21:48.534Z,11.57
2018-11-05T14:24:16.909Z,11.53
2018-11-05T14:26:45.108Z,13.43
2018-11-05T14:29:13.968Z,13.53
2018-11-05T14:31:41.813Z,15.53
2018-11-05T14:34:10.112Z,10.87
2018-11-05T14:36:38.796Z,13.80
2018-11-05T14:39:09.543Z,11.17
2018-11-05T14:41:37.790Z,13.13
2018-11-05T14:44:06.229Z,11.90
2018-11-05T14:46:34.733Z,11.30
2018-11-05T14:49:02.926Z,11.40
2018-11-05T14:51:31.182Z,13.90
2018-11-05T14:53:59.388Z,9.87
2018-11-05T14:56:27.574Z,11.73
2018-11-05T14:58:56.175Z,14.00
2018-11-05T15:01:24.385Z,12.20
2018-11-05T15:03:52.818Z,12.80
2018-11-05T15:06:23.471Z,14.97
2018-11-05T15:08:51.700Z,13.93
2018-11-05T15:11:19.937Z,15.63
2018-11-05T15:13:48.176Z,11.13
2018-11-05T15:16:16.400Z,21.37
2018-11-05T15:18:45.041Z,13.00
2018-11-05T15:21:12.958Z,15.27
2018-11-05T15:23:41.115Z,12.90
2018-11-05T15:26:09.491Z,13.57
2018-11-05T15:28:37.698Z,10.90
2018-11-05T15:31:06.327Z,14.63
2018-11-05T15:33:34.563Z,11.80
2018-11-05T15:36:02.804Z,11.23
2018-11-05T15:38:31.066Z,12.70
2018-11-05T15:40:59.260Z,10.33
2018-11-05T15:43:27.509Z,14.37
2018-11-05T15:45:55.698Z,11.07
2018-11-05T15:48:23.923Z,12.83
2018-11-05T15:50:52.163Z,12.07
2018-11-05T15:53:21.537Z,11.20
2018-11-05T15:55:49.136Z,11.00
2018-11-05T15:58:17.342Z,10.10
2018-11-05T16:00:45.556Z,9.73
2018-11-05T16:03:13.756Z,11.77
2018-11-05T16:05:41.979Z,11.63
2018-11-05T16:08:10.231Z,11.07
2018-11-05T16:10:38.412Z,12.87
2018-11-05T16:13:06.628Z,12.20
2018-11-05T16:15:34.861Z,12.47
2018-11-05T16:18:03.129Z,10.97
2018-11-05T16:20:31.928Z,12.00
2018-11-05T16:23:00.167Z,13.77
2018-11-05T16:25:28.440Z,11.97
2018-11-05T16:27:56.630Z,10.73
2018-11-05T16:30:24.855Z,13.43
2018-11-05T16:32:53.142Z,13.73
2018-11-05T16:35:21.531Z,11.90
2018-11-05T16:37:49.765Z,13.23
2018-11-05T16:40:18.791Z,14.50
2018-11-05T16:42:48.380Z,12.20
2018-11-05T16:45:16.696Z,10.37
2018-11-05T16:47:45.260Z,12.27
2018-11-05T16:50:16.515Z,14.03
2018-11-05T16:52:44.775Z,11.47
2018-11-05T16:55:13.884Z,11.73
2018-11-05T16:57:42.679Z,12.17
2018-11-05T17:00:11.488Z,11.97
2018-11-05T17:02:40.905Z,10.63
2018-11-05T17:05:08.992Z,10.27
2018-11-05T17:07:37.243Z,11.80
2018-11-05T17:10:06.744Z,10.23
2018-11-05T17:12:35.026Z,10.50
2018-11-05T17:15:03.305Z,11.93
2018-11-05T17:17:31.582Z,10.43
2018-11-05T17:19:59.848Z,11.87
2018-11-05T17:22:28.064Z,12.33
2018-11-05T17:24:56.261Z,10.30
2018-11-05T17:27:24.467Z,11.07
2018-11-05T17:29:52.720Z,14.10
2018-11-05T17:32:21.228Z,11.50
2018-11-05T17:34:49.482Z,14.30
2018-11-05T17:37:18.051Z,12.50
2018-11-05T17:39:46.325Z,14.75
2018-11-05T17:42:14.555Z,17.17
2018-11-05T17:44:42.801Z,12.67
2018-11-05T17:47:11.013Z,14.47
2018-11-05T17:49:39.250Z,15.00
2018-11-05T17:52:07.457Z,15.57
2018-11-05T17:54:36.306Z,15.72
2018-11-05T17:57:04.667Z,14.77
2018-11-05T17:59:33.324Z,12.70
2018-11-05T18:02:01.592Z,12.90
2018-11-05T18:04:30.038Z,13.27
2018-11-05T18:06:58.146Z,12.93
2018-11-05T18:09:26.405Z,12.70
2018-11-05T18:11:54.619Z,13.90
2018-11-05T18:14:23.195Z,12.80
2018-11-05T18:16:51.431Z,13.15
2018-11-05T18:19:19.675Z,11.13
2018-11-05T18:21:47.896Z,12.03
2018-11-05T18:24:16.200Z,13.60
2018-11-05T18:26:44.391Z,11.87
2018-11-05T18:32:44.109Z,14.07
2018-11-05T18:35:13.108Z,15.03
2018-11-05T18:37:42.191Z,12.95
2018-11-05T18:40:13.168Z,13.58
2018-11-05T18:42:42.592Z,11.33
2018-11-05T18:45:11.136Z,10.60
2018-11-05T18:47:39.353Z,10.95
2018-11-05T18:50:10.323Z,11.57
2018-11-05T18:52:38.545Z,17.10
2018-11-05T18:55:08.446Z,15.78
2018-11-05T18:57:37.027Z,17.65
2018-11-05T19:00:08.993Z,16.42
2018-11-05T19:02:37.433Z,15.13
2018-11-05T19:05:05.657Z,13.00
2018-11-05T19:07:33.882Z,12.88
2018-11-05T19:10:02.117Z,18.13
2018-11-05T19:12:30.354Z,13.43
2018-11-05T19:14:58.613Z,12.93
2018-11-05T19:17:26.833Z,15.70
2018-11-05T19:19:55.052Z,14.10
2018-11-05T19:22:23.556Z,15.03
2018-11-05T19:24:51.829Z,15.10
2018-11-05T19:27:20.109Z,17.25
2018-11-05T19:29:48.353Z,13.57
2018-11-05T19:32:16.542Z,15.13
2018-11-05T19:34:44.774Z,17.27
2018-11-05T19:37:13.010Z,13.08
2018-11-05T19:39:41.272Z,13.65
2018-11-05T19:42:09.584Z,13.80
2018-11-05T19:44:37.776Z,13.35
2018-11-05T19:47:06.119Z,12.47
2018-11-05T19:49:34.618Z,15.48
2018-11-05T19:52:02.784Z,12.47
2018-11-05T19:54:31.076Z,17.50
2018-11-05T19:56:59.311Z,14.03
2018-11-05T19:59:28.688Z,16.17
2018-11-05T20:01:56.956Z,16.50
2018-11-05T20:04:25.592Z,18.82
2018-11-05T20:06:53.787Z,15.83
2018-11-05T20:09:22.026Z,20.23
2018-11-05T20:11:50.293Z,16.33
2018-11-05T20:14:18.526Z,15.48
2018-11-05T20:16:46.708Z,18.23
2018-11-05T20:19:15.019Z,18.82
2018-11-05T20:21:44.076Z,14.97
2018-11-05T20:24:12.436Z,19.85
2018-11-05T20:26:40.778Z,15.93
2018-11-05T20:29:09.024Z,15.90
2018-11-05T20:31:37.590Z,16.20
2018-11-05T20:34:05.744Z,16.12
2018-11-05T20:36:34.673Z,14.27
2018-11-05T20:39:02.903Z,15.68
2018-11-05T20:41:31.168Z,16.37
2018-11-05T20:43:59.434Z,19.52
2018-11-05T20:46:31.591Z,15.63
2018-11-05T20:48:59.864Z,15.80
2018-11-05T20:51:28.053Z,16.13
2018-11-05T20:53:56.306Z,14.20
2018-11-05T20:56:24.886Z,16.47
2018-11-05T20:58:53.690Z,15.85
2018-11-05T21:01:21.907Z,14.87
2018-11-05T21:03:50.149Z,14.18
2018-11-05T21:06:18.432Z,15.80
2018-11-05T21:08:46.679Z,15.48
2018-11-05T21:11:15.154Z,13.85
2018-11-05T21:13:43.375Z,14.90
2018-11-05T21:16:11.555Z,14.70
2018-11-05T21:18:39.816Z,13.35
2018-11-05T21:21:08.115Z,18.03
2018-11-05T21:23:36.292Z,16.30
2018-11-05T21:26:05.374Z,14.97
2018-11-05T21:28:33.650Z,16.10
2018-11-05T21:31:01.918Z,15.33
2018-11-05T21:33:30.153Z,17.12
2018-11-05T21:35:58.425Z,17.03
2018-11-05T21:38:27.235Z,16.12
2018-11-05T21:40:55.479Z,15.97
2018-11-05T21:43:23.829Z,15.15
2018-11-05T21:45:52.269Z,15.87
2018-11-05T21:48:20.478Z,15.15
2018-11-05T21:50:48.718Z,16.83
2018-11-05T21:53:16.988Z,17.98
2018-11-05T21:55:45.189Z,17.70
2018-11-05T21:58:13.443Z,13.25
2018-11-05T22:00:41.712Z,16.57
2018-11-05T22:03:16.654Z,16.37
2018-11-05T22:05:44.923Z,14.78
2018-11-05T22:08:13.121Z,15.03
2018-11-05T22:10:41.323Z,14.87
2018-11-05T22:13:09.722Z,15.10
2018-11-05T22:15:43.803Z,15.80
2018-11-05T22:18:12.092Z,14.63
2018-11-05T22:20:40.480Z,15.87
2018-11-05T22:23:08.711Z,14.83
2018-11-05T22:25:37.036Z,13.20
2018-11-05T22:28:05.526Z,13.50
2018-11-05T22:30:33.760Z,12.77
2018-11-05T22:33:02.008Z,14.63
2018-11-05T22:35:30.324Z,20.33
2018-11-05T22:37:58.574Z,14.18
2018-11-05T22:40:28.097Z,16.83
2018-11-05T22:42:56.310Z,14.43
2018-11-05T22:45:24.550Z,14.80
2018-11-05T22:47:52.804Z,16.83
2018-11-05T22:50:21.249Z,15.48
2018-11-05T22:52:49.486Z,13.93
2018-11-05T22:55:17.717Z,14.40
2018-11-05T22:57:45.993Z,13.38
2018-11-05T23:00:21.009Z,14.15
2018-11-05T23:02:54.773Z,13.58
2018-11-05T23:05:23.226Z,13.70
2018-11-05T23:07:52.663Z,12.97
2018-11-05T23:10:21.272Z,16.30
2018-11-05T23:12:49.609Z,12.15
2018-11-05T23:15:18.219Z,15.20
2018-11-05T23:17:46.480Z,18.05
2018-11-05T23:20:14.684Z,14.28
2018-11-05T23:22:47.258Z,13.05
2018-11-05T23:25:15.489Z,16.05
2018-11-05T23:27:43.739Z,12.37
2018-11-05T23:30:12.920Z,12.60
2018-11-05T23:32:42.159Z,13.90
2018-11-05T23:35:11.094Z,12.85
2018-11-05T23:37:40.311Z,14.47
2018-11-05T23:40:09.079Z,13.95
2018-11-05T23:42:38.303Z,15.13
2018-11-05T23:45:10.357Z,15.68
2018-11-05T23:47:38.630Z,16.05
2018-11-05T23:50:07.174Z,13.10
2018-11-05T23:52:35.442Z,14.90
2018-11-05T23:55:03.656Z,13.85
2018-11-05T23:57:31.851Z,14.00
